createdAt,value
2023-07-04T00:01:11.067Z,99938.09
2023-07-04T00:03:40.522Z,99940.88
2023-07-04T00:06:08.616Z,99939.28
2023-07-04T00:08:36.203Z,99939.69
2023-07-04T00:11:07.638Z,99943.69
2023-07-04T00:13:35.815Z,99942.88
2023-07-04T00:16:06.734Z,99948.03
2023-07-04T00:18:35.530Z,99944.06
2023-07-04T00:21:05.305Z,99954.03
2023-07-04T00:23:36.310Z,99953.66
2023-07-04T00:26:05.753Z,99947.25
2023-07-04T00:28:34.582Z,99944.84
2023-07-04T00:31:04.597Z,99946.44
2023-07-04T00:33:31.985Z,99951.66
2023-07-04T00:36:06.478Z,99937.25
2023-07-04T00:38:34.944Z,99938.47
2023-07-04T00:41:03.022Z,99934.47
2023-07-04T00:43:46.652Z,99930.47
2023-07-04T00:46:16.486Z,99932.88
2023-07-04T00:48:46.293Z,99946.44
2023-07-04T00:51:23.178Z,99946.41
2023-07-04T00:53:54.438Z,99948.84
2023-07-04T00:56:26.928Z,99952.00
2023-07-04T00:58:58.084Z,99954.00
2023-07-04T01:01:27.334Z,99948.81
2023-07-04T01:03:55.803Z,99955.19
2023-07-04T01:06:36.805Z,99960.78
2023-07-04T01:09:06.751Z,99963.59
2023-07-04T01:11:36.084Z,99963.16
2023-07-04T01:14:06.402Z,99953.56
2023-07-04T01:16:33.836Z,99954.41
2023-07-04T01:19:01.389Z,99958.78
2023-07-04T01:21:28.933Z,99954.41
2023-07-04T01:24:11.950Z,99964.75
2023-07-04T01:26:41.052Z,99959.94
2023-07-04T01:29:11.128Z,99958.34
2023-07-04T01:31:38.402Z,99971.13
2023-07-04T01:34:06.739Z,99972.28
2023-07-04T01:36:35.578Z,99972.72
2023-07-04T01:39:03.584Z,99975.06
2023-07-04T01:41:33.346Z,99983.44
2023-07-04T01:44:05.634Z,99986.22
2023-07-04T01:46:33.942Z,99979.03
2023-07-04T01:49:01.259Z,99972.25
2023-07-04T01:51:40.232Z,99974.22
2023-07-04T01:54:08.324Z,99971.81
2023-07-04T01:56:38.365Z,99974.22
2023-07-04T01:59:06.102Z,99979.00
2023-07-04T02:01:33.480Z,99986.16
2023-07-04T02:04:00.689Z,99985.72
2023-07-04T02:06:28.266Z,99973.34
2023-07-04T02:08:59.482Z,99984.53
2023-07-04T02:11:26.841Z,99988.09
2023-07-04T02:13:54.618Z,99989.31
2023-07-04T02:16:22.184Z,99995.69
2023-07-04T02:18:49.767Z,99993.72
2023-07-04T02:21:16.937Z,100006.84
2023-07-04T02:23:45.255Z,99998.06
2023-07-04T02:26:13.662Z,99998.47
2023-07-04T02:28:41.308Z,99998.50
2023-07-04T02:31:08.678Z,100002.91
2023-07-04T02:33:36.652Z,100007.69
2023-07-04T02:36:05.334Z,100003.69
2023-07-04T02:38:33.060Z,100006.91
2023-07-04T02:41:00.285Z,100011.72
2023-07-04T02:43:28.204Z,100010.91
2023-07-04T02:45:55.998Z,100008.56
2023-07-04T02:48:25.411Z,100018.13
2023-07-04T02:50:53.377Z,100015.34
2023-07-04T02:53:23.320Z,100029.28
2023-07-04T02:55:51.589Z,100026.91
2023-07-04T02:58:21.039Z,100024.88
2023-07-04T03:00:49.475Z,100030.44
2023-07-04T03:03:18.520Z,100031.63
2023-07-04T03:05:47.156Z,100040.00
2023-07-04T03:08:14.873Z,100040.00
2023-07-04T03:10:46.905Z,100042.78
2023-07-04T03:13:16.255Z,100038.00
2023-07-04T03:15:44.082Z,100043.59
2023-07-04T03:18:12.256Z,100042.00
2023-07-04T03:20:41.029Z,100046.00
2023-07-04T03:23:09.275Z,100052.38
2023-07-04T03:25:37.962Z,100046.81
2023-07-04T03:28:05.725Z,100045.63
2023-07-04T03:30:33.011Z,100046.41
2023-07-04T03:33:07.022Z,100042.03
2023-07-04T03:35:53.282Z,100042.88
2023-07-04T03:38:25.925Z,100051.69
2023-07-04T03:40:54.109Z,100041.34
2023-07-04T03:43:23.450Z,100049.34
2023-07-04T03:45:50.587Z,100042.97
2023-07-04T03:48:18.204Z,100046.19
2023-07-04T03:50:46.124Z,100044.59
2023-07-04T03:53:13.342Z,100048.63
2023-07-04T03:55:41.081Z,100039.06
2023-07-04T03:58:08.284Z,100048.25
2023-07-04T04:00:36.116Z,100055.03
2023-07-04T04:03:03.542Z,100043.09
2023-07-04T04:05:31.016Z,100048.25
2023-07-04T04:07:58.379Z,100055.84
2023-07-04T04:10:25.541Z,100055.06
2023-07-04T04:12:52.967Z,100057.47
2023-07-04T04:15:20.157Z,100045.50
2023-07-04T04:17:49.278Z,100063.88
2023-07-04T04:20:16.466Z,100063.88
2023-07-04T04:22:46.845Z,100068.69
2023-07-04T04:25:15.671Z,100066.28
2023-07-04T04:27:44.870Z,100062.28
2023-07-04T04:30:13.584Z,100063.09
2023-07-04T04:32:42.387Z,100067.91
2023-07-04T04:35:09.976Z,100074.31
2023-07-04T04:37:41.444Z,100074.34
2023-07-04T04:40:09.737Z,100067.97
2023-07-04T04:42:37.111Z,100074.75
2023-07-04T04:45:05.674Z,100075.16
2023-07-04T04:47:35.804Z,100075.97
2023-07-04T04:50:03.684Z,100075.94
2023-07-04T04:52:34.590Z,100078.34
2023-07-04T04:55:05.008Z,100073.56
2023-07-04T04:57:32.255Z,100072.75
2023-07-04T05:00:02.282Z,100077.16
2023-07-04T05:02:30.603Z,100081.56
2023-07-04T05:05:00.182Z,100081.16
2023-07-04T05:07:28.207Z,100090.38
2023-07-04T05:09:59.283Z,100079.97
2023-07-04T05:12:26.834Z,100077.97
2023-07-04T05:14:54.958Z,100089.56
2023-07-04T05:17:23.180Z,100084.75
2023-07-04T05:19:51.154Z,100080.75
2023-07-04T05:22:19.229Z,100081.56
2023-07-04T05:24:46.681Z,100086.75
2023-07-04T05:27:13.985Z,100078.00
2023-07-04T05:29:41.268Z,100082.38
2023-07-04T05:32:09.456Z,100084.38
2023-07-04T05:34:36.936Z,100079.97
2023-07-04T05:37:04.781Z,100084.38
2023-07-04T05:39:33.119Z,100087.94
2023-07-04T05:42:00.287Z,100083.13
2023-07-04T05:44:27.758Z,100078.31
2023-07-04T05:46:55.556Z,100079.13
2023-07-04T05:49:22.770Z,100081.09
2023-07-04T05:51:50.034Z,100076.28
2023-07-04T05:54:17.240Z,100072.25
2023-07-04T05:56:44.545Z,100076.66
2023-07-04T05:59:11.864Z,100071.84
2023-07-04T06:01:41.571Z,100077.06
2023-07-04T06:04:09.424Z,100075.81
2023-07-04T06:07:03.794Z,100080.59
2023-07-04T06:09:33.961Z,100077.78
2023-07-04T06:12:01.112Z,100078.13
2023-07-04T06:14:28.964Z,100075.69
2023-07-04T06:16:57.097Z,100078.06
2023-07-04T06:19:25.052Z,100077.22
2023-07-04T06:21:52.860Z,100082.78
2023-07-04T06:24:21.330Z,100072.31
2023-07-04T06:26:48.877Z,100080.69
2023-07-04T06:29:16.291Z,100083.50
2023-07-04T06:31:44.625Z,100089.09
2023-07-04T06:34:13.043Z,100080.63
2023-07-04T06:36:42.111Z,100088.22
2023-07-04T06:39:09.538Z,100089.38
2023-07-04T06:41:37.044Z,100088.13
2023-07-04T06:44:05.890Z,100085.66
2023-07-04T06:49:01.117Z,100083.16
2023-07-04T06:51:32.132Z,100087.09
2023-07-04T06:54:01.251Z,100082.25
2023-07-04T06:56:28.579Z,100083.81
2023-07-04T06:58:56.355Z,100094.97
2023-07-04T07:01:29.344Z,100098.13
2023-07-04T07:03:57.511Z,100088.47
2023-07-04T07:06:26.414Z,100092.06
2023-07-04T07:08:54.408Z,100091.59
2023-07-04T07:11:22.926Z,100098.34
2023-07-04T07:13:51.592Z,100097.88
2023-07-04T07:16:25.165Z,100092.53
2023-07-04T07:18:53.644Z,100104.09
2023-07-04T07:21:25.252Z,100098.44
2023-07-04T07:23:57.267Z,100098.38
2023-07-04T07:26:27.116Z,100095.84
2023-07-04T07:28:55.530Z,100098.94
2023-07-04T07:33:55.697Z,100102.41
2023-07-04T07:36:47.697Z,100100.75
2023-07-04T07:39:16.664Z,100098.66
2023-07-04T07:41:46.790Z,100097.72
2023-07-04T07:44:15.134Z,100097.28
2023-07-04T07:46:43.204Z,100096.81
2023-07-04T07:49:10.573Z,100092.72
2023-07-04T07:51:38.795Z,100093.41
2023-07-04T07:54:09.613Z,100091.28
2023-07-04T07:56:43.128Z,100084.31
2023-07-04T07:59:10.537Z,100076.19
2023-07-04T08:01:38.726Z,100083.28
2023-07-04T08:04:06.497Z,100067.44
2023-07-04T08:06:42.563Z,100069.31
2023-07-04T08:09:15.306Z,100074.34
2023-07-04T08:11:52.680Z,100075.38
2023-07-04T08:14:20.154Z,100076.84
2023-07-04T08:16:54.923Z,100074.75
2023-07-04T08:19:24.736Z,100071.88
2023-07-04T08:21:52.757Z,100075.69
2023-07-04T08:24:20.178Z,100075.97
2023-07-04T08:26:47.764Z,100070.25
2023-07-04T08:29:15.548Z,100078.63
2023-07-04T08:31:43.180Z,100076.94
2023-07-04T08:34:13.393Z,100072.78
2023-07-04T08:36:42.524Z,100080.66
2023-07-04T08:39:10.703Z,100081.75
2023-07-04T08:41:43.838Z,100073.13
2023-07-04T08:44:21.725Z,100077.06
2023-07-04T08:46:55.805Z,100081.75
2023-07-04T08:49:31.057Z,100084.13
2023-07-04T08:52:24.266Z,100081.59
2023-07-04T08:54:52.140Z,100083.00
2023-07-04T08:57:46.752Z,100075.22
2023-07-04T09:00:32.796Z,100075.59
2023-07-04T09:03:27.827Z,100074.25
2023-07-04T09:06:16.643Z,100072.88
2023-07-04T09:09:02.720Z,100072.28
2023-07-04T09:11:30.127Z,100065.22
2023-07-04T09:13:59.678Z,100073.16
2023-07-04T09:16:33.753Z,100071.44
2023-07-04T09:19:06.406Z,100070.03
2023-07-04T09:21:34.092Z,100065.78
2023-07-04T09:24:03.022Z,100065.25
2023-07-04T09:26:39.573Z,100067.53
2023-07-04T09:29:08.395Z,100058.53
2023-07-04T09:31:43.165Z,100060.13
2023-07-04T09:34:33.772Z,100065.69
2023-07-04T09:37:02.705Z,100064.00
2023-07-04T09:39:54.996Z,100063.81
2023-07-04T09:42:48.491Z,100062.69
2023-07-04T09:45:22.426Z,100061.00
2023-07-04T09:47:49.789Z,100061.31
2023-07-04T09:50:33.734Z,100064.38
2023-07-04T09:53:11.465Z,100059.22
2023-07-04T09:55:40.819Z,100064.88
2023-07-04T09:58:22.559Z,100059.84
2023-07-04T10:01:10.219Z,100061.94
2023-07-04T10:03:42.922Z,100061.66
2023-07-04T10:06:10.542Z,100062.50
2023-07-04T10:08:51.335Z,100069.53
2023-07-04T10:11:26.233Z,100068.03
2023-07-04T10:14:01.815Z,100072.66
2023-07-04T10:16:29.242Z,100067.69
2023-07-04T10:19:14.123Z,100075.28
2023-07-04T10:21:51.960Z,100072.69
2023-07-04T10:24:27.239Z,100071.00
2023-07-04T10:26:59.701Z,100064.47
2023-07-04T10:29:43.960Z,100077.34
2023-07-04T10:32:14.781Z,100075.78
2023-07-04T10:34:44.288Z,100072.59
2023-07-04T10:37:24.436Z,100066.59
2023-07-04T10:39:58.477Z,100063.53
2023-07-04T10:42:41.141Z,100064.47
2023-07-04T10:45:09.793Z,100066.94
2023-07-04T10:47:38.838Z,100061.50
2023-07-04T10:50:16.278Z,100063.28
2023-07-04T10:52:46.281Z,100063.84
2023-07-04T10:55:16.796Z,100057.84
2023-07-04T10:57:57.787Z,100054.47
2023-07-04T11:00:33.224Z,100057.41
2023-07-04T11:03:08.065Z,100057.53
2023-07-04T11:05:41.672Z,100055.50
2023-07-04T11:08:10.289Z,100049.84
2023-07-04T11:10:42.095Z,100053.34
2023-07-04T11:13:09.437Z,100049.06
2023-07-04T11:15:36.800Z,100047.81
2023-07-04T11:18:04.024Z,100043.16
2023-07-04T11:20:41.702Z,100046.34
2023-07-04T11:23:20.475Z,100043.84
2023-07-04T11:25:47.855Z,100044.44
2023-07-04T11:28:26.603Z,100046.50
2023-07-04T11:31:13.234Z,100047.09
2023-07-04T11:33:45.387Z,100046.84
2023-07-04T11:36:24.976Z,100039.69
2023-07-04T11:38:55.405Z,100039.94
2023-07-04T11:41:32.683Z,100040.16
2023-07-04T11:44:13.920Z,100040.84
2023-07-04T11:46:42.526Z,100040.59
2023-07-04T11:49:18.616Z,100033.94
2023-07-04T11:51:45.925Z,100035.47
2023-07-04T11:54:13.072Z,100031.38
2023-07-04T11:56:43.325Z,100025.28
2023-07-04T11:59:18.099Z,100024.91
2023-07-04T12:01:56.413Z,100027.31
2023-07-04T12:04:42.134Z,100030.91
2023-07-04T12:07:11.996Z,100018.13
2023-07-04T12:09:46.678Z,100027.06
2023-07-04T12:12:21.600Z,100023.53
2023-07-04T12:14:57.919Z,100032.19
2023-07-04T12:17:25.668Z,100035.22
2023-07-04T12:20:05.038Z,100029.94
2023-07-04T12:22:32.871Z,100027.09
2023-07-04T12:25:14.092Z,100032.78
2023-07-04T12:27:43.129Z,100028.47
2023-07-04T12:30:12.867Z,100023.28
2023-07-04T12:32:41.079Z,100021.44
2023-07-04T12:37:41.231Z,100020.06
2023-07-04T12:40:15.164Z,100022.34
2023-07-04T12:42:43.659Z,100022.09
2023-07-04T12:45:12.049Z,100020.28
2023-07-04T12:47:40.297Z,100016.25
2023-07-04T12:50:08.873Z,100022.50
2023-07-04T12:52:37.798Z,100024.28
2023-07-04T12:55:06.296Z,100024.97
2023-07-04T12:57:33.904Z,100018.34
2023-07-04T13:00:11.770Z,100017.44
2023-07-04T13:02:40.164Z,100016.19
2023-07-04T13:05:08.059Z,100010.59
2023-07-04T13:07:35.538Z,100013.78
2023-07-04T13:10:04.456Z,100015.41
2023-07-04T13:12:34.976Z,100013.34
2023-07-04T13:15:25.715Z,100005.97
2023-07-04T13:18:01.532Z,100009.03
2023-07-04T13:20:33.996Z,100012.78
2023-07-04T13:25:56.420Z,100007.06
2023-07-04T13:33:54.956Z,99997.50
2023-07-04T13:36:44.550Z,99996.09
2023-07-04T13:41:44.392Z,99988.19
2023-07-04T13:46:43.345Z,100002.31
2023-07-04T13:49:10.614Z,99999.00
2023-07-04T13:51:38.154Z,99995.81
2023-07-04T13:54:05.775Z,99984.63
2023-07-04T13:56:35.083Z,99995.81
2023-07-04T13:59:02.490Z,99989.59
2023-07-04T14:06:31.036Z,99988.03
2023-07-04T14:08:58.344Z,99985.56
2023-07-04T14:11:25.459Z,99987.13
2023-07-04T14:14:00.626Z,99985.25
2023-07-04T14:19:56.880Z,99980.25
2023-07-04T14:21:47.875Z,99980.19
2023-07-04T14:24:15.093Z,99979.22
2023-07-04T14:26:42.527Z,99975.13
2023-07-04T14:29:09.717Z,99975.78
2023-07-04T14:31:37.701Z,99974.25
2023-07-04T14:34:05.084Z,99976.81
2023-07-04T14:36:33.189Z,99971.78
2023-07-04T14:39:01.300Z,99979.84
2023-07-04T14:44:02.588Z,99974.03
2023-07-04T14:46:30.573Z,99985.28
2023-07-04T14:48:58.178Z,99976.53
2023-07-04T14:51:25.469Z,99979.06
2023-07-04T14:53:52.616Z,99970.41
2023-07-04T14:56:20.270Z,99965.19
2023-07-04T14:58:47.603Z,99963.25
2023-07-04T15:01:19.448Z,99970.22
2023-07-04T15:03:46.756Z,99979.31
2023-07-04T15:06:14.280Z,99978.22
2023-07-04T15:08:42.025Z,99972.78
2023-07-04T15:11:09.420Z,99976.56
2023-07-04T15:13:37.383Z,99983.03
2023-07-04T15:16:07.371Z,99977.81
2023-07-04T15:18:36.348Z,99977.03
2023-07-04T15:21:04.546Z,99970.69
2023-07-04T15:23:34.264Z,99976.53
2023-07-04T15:26:19.469Z,99977.09
2023-07-04T15:28:49.419Z,99979.75
2023-07-04T15:31:16.979Z,99979.09
2023-07-04T15:33:44.603Z,99979.75
2023-07-04T15:36:12.300Z,99988.09
2023-07-04T15:38:39.634Z,99984.59
2023-07-04T15:41:10.851Z,99981.41
2023-07-04T15:43:39.222Z,99991.31
2023-07-04T15:46:12.318Z,99989.69
2023-07-04T15:48:40.299Z,99986.69
2023-07-04T15:51:08.960Z,99983.50
2023-07-04T15:53:36.198Z,99986.91
2023-07-04T15:56:05.181Z,99990.66
2023-07-04T15:58:32.437Z,99990.34
2023-07-04T16:01:01.609Z,99986.84
2023-07-04T16:03:29.658Z,99993.41
2023-07-04T16:05:58.078Z,99990.72
2023-07-04T16:08:26.101Z,99998.06
2023-07-04T16:10:57.978Z,99992.41
2023-07-04T16:13:25.625Z,99995.34
2023-07-04T16:15:53.282Z,99995.81
2023-07-04T16:18:21.909Z,99996.72
2023-07-04T16:20:49.160Z,99996.03
2023-07-04T16:23:16.518Z,99993.78
2023-07-04T16:25:44.965Z,99996.84
2023-07-04T16:28:12.428Z,99999.03
2023-07-04T16:30:41.572Z,100003.34
2023-07-04T16:33:08.903Z,100001.19
2023-07-04T16:35:38.593Z,100003.34
2023-07-04T16:38:06.256Z,100006.28
2023-07-04T16:40:34.662Z,100006.38
2023-07-04T16:43:02.320Z,100008.97
2023-07-04T16:45:29.741Z,100003.53
2023-07-04T16:47:57.338Z,100005.34
2023-07-04T16:50:31.429Z,100007.16
2023-07-04T16:53:00.923Z,100002.38
2023-07-04T16:55:29.270Z,100005.66
2023-07-04T16:57:56.549Z,100004.09
2023-07-04T17:00:24.037Z,100011.78
2023-07-04T17:02:51.617Z,100005.56
2023-07-04T17:05:19.007Z,100004.53
2023-07-04T17:07:46.600Z,100007.97
2023-07-04T17:10:13.978Z,100014.31
2023-07-04T17:12:41.176Z,100014.94
2023-07-04T17:15:09.318Z,100010.28
2023-07-04T17:17:36.988Z,100014.03
2023-07-04T17:20:04.827Z,100018.53
2023-07-04T17:22:32.836Z,100021.00
2023-07-04T17:25:12.969Z,100023.84
2023-07-04T17:27:42.619Z,100017.59
2023-07-04T17:30:10.813Z,100020.53
2023-07-04T17:32:41.235Z,100032.38
2023-07-04T17:35:10.535Z,100025.56
2023-07-04T17:37:38.247Z,100034.56
2023-07-04T17:40:06.007Z,100045.97
2023-07-04T17:42:33.869Z,100042.09
2023-07-04T17:45:01.018Z,100035.03
2023-07-04T17:47:28.998Z,100038.84
2023-07-04T17:49:57.004Z,100037.00
2023-07-04T17:52:25.410Z,100044.88
2023-07-04T17:54:52.666Z,100049.44
2023-07-04T17:57:27.702Z,100056.06
2023-07-04T17:59:56.260Z,100055.41
2023-07-04T18:02:23.869Z,100059.59
2023-07-04T18:04:55.540Z,100054.91
2023-07-04T18:07:23.615Z,100065.53
2023-07-04T18:09:52.324Z,100068.53
2023-07-04T18:12:20.979Z,100061.47
2023-07-04T18:14:48.440Z,100062.84
2023-07-04T18:17:16.239Z,100067.06
2023-07-04T18:19:44.403Z,100067.22
2023-07-04T18:22:11.842Z,100069.38
2023-07-04T18:24:39.417Z,100068.72
2023-07-04T18:27:06.952Z,100065.25
2023-07-04T18:29:34.645Z,100076.69
2023-07-04T18:32:03.861Z,100076.84
2023-07-04T18:34:31.514Z,100083.44
2023-07-04T18:36:58.889Z,100081.09
2023-07-04T18:39:26.474Z,100079.66
2023-07-04T18:41:54.007Z,100077.31
2023-07-04T18:44:21.661Z,100084.66
2023-07-04T18:46:49.814Z,100087.19
2023-07-04T18:49:17.586Z,100084.06
2023-07-04T18:51:44.938Z,100087.00
2023-07-04T18:54:15.891Z,100086.25
2023-07-04T18:56:44.008Z,100089.22
2023-07-04T18:59:14.256Z,100094.91
2023-07-04T19:01:43.444Z,100092.16
2023-07-04T19:04:11.046Z,100082.19
2023-07-04T19:06:38.886Z,100089.91
2023-07-04T19:09:06.734Z,100102.44
2023-07-04T19:11:40.423Z,100105.72
2023-07-04T19:14:21.743Z,100094.50
2023-07-04T19:16:54.287Z,100096.66
2023-07-04T19:19:32.973Z,100105.53
2023-07-04T19:22:05.695Z,100110.00
2023-07-04T19:24:36.746Z,100110.03
2023-07-04T19:27:04.053Z,100113.25
2023-07-04T19:29:33.163Z,100105.31
2023-07-04T19:32:01.138Z,100110.56
2023-07-04T19:34:30.496Z,100108.59
2023-07-04T19:36:58.641Z,100113.47
2023-07-04T19:39:26.412Z,100122.41
2023-07-04T19:41:53.603Z,100121.66
2023-07-04T19:44:20.929Z,100117.31
2023-07-04T19:46:48.152Z,100117.34
2023-07-04T19:49:23.901Z,100112.19
2023-07-04T19:51:56.185Z,100117.44
2023-07-04T19:54:28.687Z,100116.72
2023-07-04T19:56:57.533Z,100115.53
2023-07-04T19:59:36.397Z,100112.41
2023-07-04T20:02:14.249Z,100114.06
2023-07-04T20:04:54.636Z,100113.31
2023-07-04T20:07:41.803Z,100110.16
2023-07-04T20:10:21.246Z,100102.97
2023-07-04T20:13:02.642Z,100107.84
2023-07-04T20:15:40.700Z,100104.66
2023-07-04T20:18:08.589Z,100114.38
2023-07-04T20:20:42.172Z,100112.97
2023-07-04T20:23:09.400Z,100110.91
2023-07-04T20:25:47.008Z,100112.13
2023-07-04T20:28:23.605Z,100108.13
2023-07-04T20:31:00.790Z,100116.56
2023-07-04T20:33:33.922Z,100116.34
2023-07-04T20:36:01.794Z,100112.28
2023-07-04T20:38:29.316Z,100113.09
2023-07-04T20:41:01.823Z,100111.47
2023-07-04T20:43:29.143Z,100119.16
2023-07-04T20:45:56.680Z,100117.19
2023-07-04T20:48:24.395Z,100119.59
2023-07-04T20:50:53.336Z,100111.22
2023-07-04T20:53:21.922Z,100110.84
2023-07-04T20:55:49.842Z,100119.69
2023-07-04T20:58:18.311Z,100117.69
2023-07-04T21:00:47.405Z,100115.72
2023-07-04T21:03:14.800Z,100120.97
2023-07-04T21:05:42.317Z,100114.94
2023-07-04T21:08:09.721Z,100113.41
2023-07-04T21:10:38.877Z,100123.06
2023-07-04T21:13:07.032Z,100119.06
2023-07-04T21:15:35.002Z,100128.31
2023-07-04T21:18:02.474Z,100127.91
2023-07-04T21:20:30.243Z,100131.94
2023-07-04T21:22:57.569Z,100121.56
2023-07-04T21:25:24.832Z,100131.16
2023-07-04T21:27:52.754Z,100132.03
2023-07-04T21:30:20.073Z,100134.44
2023-07-04T21:32:48.126Z,100136.84
2023-07-04T21:35:15.611Z,100133.63
2023-07-04T21:37:43.151Z,100131.66
2023-07-04T21:40:11.000Z,100138.47
2023-07-04T21:42:38.661Z,100138.50
2023-07-04T21:45:07.306Z,100134.88
2023-07-04T21:47:42.910Z,100136.09
2023-07-04T21:50:12.135Z,100132.91
2023-07-04T21:52:40.880Z,100135.31
2023-07-04T21:55:10.844Z,100138.53
2023-07-04T21:57:40.474Z,100141.78
2023-07-04T22:00:09.178Z,100141.38
2023-07-04T22:02:36.705Z,100133.78
2023-07-04T22:05:04.390Z,100142.19
2023-07-04T22:07:32.158Z,100149.03
2023-07-04T22:09:59.857Z,100148.25
2023-07-04T22:12:27.155Z,100146.63
2023-07-04T22:14:54.480Z,100155.50
2023-07-04T22:17:21.693Z,100157.91
2023-07-04T22:19:48.875Z,100152.28
2023-07-04T22:22:16.160Z,100154.72
2023-07-04T22:24:44.378Z,100156.72
2023-07-04T22:27:11.645Z,100161.13
2023-07-04T22:29:38.760Z,100159.53
2023-07-04T22:32:07.476Z,100158.72
2023-07-04T22:34:34.719Z,100161.94
2023-07-04T22:37:02.120Z,100159.97
2023-07-04T22:39:29.842Z,100160.38
2023-07-04T22:42:02.557Z,100161.59
2023-07-04T22:44:30.376Z,100158.41
2023-07-04T22:46:57.731Z,100162.81
2023-07-04T22:49:25.061Z,100158.03
2023-07-04T22:51:52.573Z,100154.03
2023-07-04T22:54:19.754Z,100152.03
2023-07-04T22:56:48.122Z,100150.84
2023-07-04T22:59:15.389Z,100152.47
2023-07-04T23:01:42.949Z,100154.09
2023-07-04T23:04:10.386Z,100148.47
2023-07-04T23:06:38.669Z,100150.88
2023-07-04T23:09:09.065Z,100153.25
2023-07-04T23:11:36.502Z,100158.91
2023-07-04T23:14:03.928Z,100154.91
2023-07-04T23:16:32.242Z,100150.91
2023-07-04T23:19:00.347Z,100152.53
2023-07-04T23:21:27.664Z,100155.75
2023-07-04T23:23:55.069Z,100152.97
2023-07-04T23:26:26.494Z,100158.56
2023-07-04T23:28:54.317Z,100156.56
2023-07-04T23:31:22.248Z,100153.38
2023-07-04T23:33:51.031Z,100150.19
2023-07-04T23:36:19.211Z,100152.59
2023-07-04T23:38:50.255Z,100155.41
2023-07-04T23:41:20.583Z,100151.81
2023-07-04T23:43:48.764Z,100147.00
2023-07-04T23:46:15.988Z,100159.03
2023-07-04T23:48:43.261Z,100154.63
2023-07-04T23:51:10.687Z,100147.44
2023-07-04T23:53:38.952Z,100150.63
2023-07-04T23:56:06.099Z,100149.44
2023-07-04T23:58:33.890Z,100150.25
